Time;durP1;ratioP1;P1;durP2;ratioP2;P2;SDS_P1;SDS_P2;PMS_P1;PMS_P2;Temp;Humidity;BMP_temperature;BMP_pressure;BME280_temperature;BME280_humidity;BME280_pressure;Samples;Min_cycle;Max_cycle;Signal;HPM_P1;HPM_P2
2024/01/09 00:00:18;;;;;;;5.63;3.47;;;-4.50;1.00;;;;;;5034847;28;20203;-50
2024/01/09 00:02:44;;;;;;;9.20;3.93;;;-4.50;1.00;;;;;;5034320;28;20245;-49
2024/01/09 00:05:09;;;;;;;6.13;3.10;;;-4.60;1.00;;;;;;5034473;28;20175;-49
2024/01/09 00:07:35;;;;;;;5.90;3.60;;;-4.70;1.00;;;;;;5033951;28;20325;-49
2024/01/09 00:10:00;;;;;;;6.77;3.67;;;-4.80;1.00;;;;;;5034769;28;20176;-49
2024/01/09 00:12:27;;;;;;;8.90;3.90;;;-4.80;1.00;;;;;;5034354;28;20242;-49
2024/01/09 00:14:53;;;;;;;8.50;3.43;;;-4.90;86.70;;;;;;5033523;28;20442;-49
2024/01/09 00:17:18;;;;;;;7.40;3.83;;;-4.90;99.90;;;;;;5034189;28;20206;-49
2024/01/09 00:19:44;;;;;;;7.57;4.30;;;-5.00;99.90;;;;;;5033812;28;20183;-50
2024/01/09 00:22:09;;;;;;;10.73;4.17;;;-5.00;99.90;;;;;;5034986;28;20287;-49
2024/01/09 00:24:35;;;;;;;8.13;4.27;;;-5.10;99.90;;;;;;5033938;28;20190;-49
2024/01/09 00:27:00;;;;;;;7.60;3.90;;;-5.10;1.00;;;;;;5034020;28;20229;-49
2024/01/09 00:29:26;;;;;;;7.50;3.77;;;-5.10;1.00;;;;;;5033622;28;20219;-49
2024/01/09 00:31:52;;;;;;;7.00;4.10;;;-5.20;1.00;;;;;;5034366;28;20187;-49
2024/01/09 00:34:17;;;;;;;8.23;4.30;;;-5.20;1.00;;;;;;5034181;28;20179;-49
2024/01/09 00:36:44;;;;;;;13.43;3.80;;;-5.30;1.00;;;;;;5033577;28;20192;-52
2024/01/09 00:39:13;;;;;;;7.20;4.00;;;-5.30;1.00;;;;;;5033396;28;20269;-50
2024/01/09 00:41:38;;;;;;;7.50;3.93;;;-5.40;1.00;;;;;;5033977;28;20992;-50
2024/01/09 00:44:04;;;;;;;8.47;4.10;;;-5.40;93.60;;;;;;5034369;28;20430;-50
2024/01/09 00:46:30;;;;;;;7.47;3.70;;;-5.40;99.90;;;;;;5033706;28;20267;-49
2024/01/09 00:48:55;;;;;;;9.00;4.80;;;-5.40;99.90;;;;;;5033233;28;20182;-49
2024/01/09 00:51:21;;;;;;;10.60;3.83;;;-5.50;1.00;;;;;;5033696;28;20187;-49
2024/01/09 00:53:46;;;;;;;8.53;4.47;;;-5.50;99.90;;;;;;5033509;28;20179;-50
2024/01/09 00:56:12;;;;;;;8.57;4.53;;;-5.60;1.00;;;;;;5033310;28;20277;-50
2024/01/09 00:58:38;;;;;;;6.87;4.00;;;-5.60;1.00;;;;;;5033425;28;20186;-50
2024/01/09 01:01:04;;;;;;;9.43;3.83;;;-5.70;1.00;;;;;;5033063;28;20590;-50
2024/01/09 01:03:29;;;;;;;8.60;4.27;;;-5.70;99.90;;;;;;5033590;28;20186;-50
2024/01/09 01:05:55;;;;;;;9.13;4.77;;;-5.70;99.90;;;;;;5033580;28;20266;-49
2024/01/09 01:08:21;;;;;;;6.43;3.80;;;-5.70;1.00;;;;;;5032993;28;20235;-49
2024/01/09 01:10:50;;;;;;;11.80;4.63;;;-5.70;1.00;;;;;;5033561;28;20647;-49
2024/01/09 01:13:15;;;;;;;8.93;3.70;;;-5.80;1.00;;;;;;5033040;28;20271;-50
2024/01/09 01:15:41;;;;;;;11.70;4.40;;;-5.90;1.00;;;;;;5032851;28;20505;-49
2024/01/09 01:18:06;;;;;;;9.10;4.30;;;-5.90;1.00;;;;;;5033084;28;20190;-49
2024/01/09 01:20:32;;;;;;;11.27;4.80;;;-5.90;1.00;;;;;;5032900;28;20210;-50
2024/01/09 01:22:57;;;;;;;15.37;7.77;;;-6.00;1.00;;;;;;5033412;28;20252;-49
2024/01/09 01:25:23;;;;;;;13.77;7.20;;;-6.00;1.00;;;;;;5032905;28;20256;-50
2024/01/09 01:27:49;;;;;;;14.20;7.60;;;-6.00;1.00;;;;;;5033217;28;20270;-50
2024/01/09 01:30:14;;;;;;;12.43;6.03;;;-6.10;99.10;;;;;;5032672;28;20242;-50
2024/01/09 01:32:40;;;;;;;9.30;4.80;;;-6.10;99.90;;;;;;5033472;28;20187;-49
2024/01/09 01:35:06;;;;;;;9.60;4.73;;;-6.10;1.00;;;;;;5033075;28;20614;-49
2024/01/09 01:37:31;;;;;;;8.97;5.30;;;-6.10;1.00;;;;;;5032610;28;20183;-50
2024/01/09 01:39:57;;;;;;;9.40;4.70;;;-6.10;1.00;;;;;;5032705;28;20414;-51
2024/01/09 01:42:23;;;;;;;9.17;4.93;;;-6.20;1.00;;;;;;5032573;28;20634;-50
2024/01/09 01:44:48;;;;;;;7.47;4.17;;;-6.20;1.00;;;;;;5032865;28;20327;-50
2024/01/09 01:47:14;;;;;;;11.30;4.60;;;-6.30;1.00;;;;;;5032413;28;20249;-50
2024/01/09 01:49:41;;;;;;;7.50;4.60;;;-6.30;1.00;;;;;;5033255;28;20534;-51
2024/01/09 01:52:07;;;;;;;7.90;4.23;;;-6.40;1.00;;;;;;5032135;28;20472;-50
2024/01/09 01:54:35;;;;;;;6.00;4.33;;;-6.40;1.00;;;;;;5032631;28;20433;-51
2024/01/09 01:57:02;;;;;;;9.30;4.93;;;-6.40;1.00;;;;;;5032377;28;20768;-52
2024/01/09 01:59:30;;;;;;;8.03;4.60;;;-6.40;90.80;;;;;;5032258;28;20421;-50
2024/01/09 02:01:56;;;;;;;8.33;4.57;;;-6.40;99.90;;;;;;5032444;28;20801;-52
2024/01/09 02:04:22;;;;;;;5.07;3.97;;;-6.40;99.90;;;;;;5031889;28;20509;-50
2024/01/09 02:06:48;;;;;;;9.50;4.87;;;-6.50;99.90;;;;;;5032138;28;20230;-51
2024/01/09 02:09:15;;;;;;;10.70;4.53;;;-6.50;99.90;;;;;;5031849;28;20484;-52
2024/01/09 02:11:40;;;;;;;12.47;6.80;;;-6.50;99.90;;;;;;5032627;28;20220;-51
2024/01/09 02:14:06;;;;;;;15.33;7.37;;;-6.60;1.00;;;;;;5031746;28;20417;-51
2024/01/09 02:16:32;;;;;;;13.50;5.90;;;-6.50;1.00;;;;;;5032378;28;20186;-51
2024/01/09 02:18:57;;;;;;;8.50;5.10;;;-6.50;42.70;;;;;;5032267;28;20211;-50
2024/01/09 02:21:23;;;;;;;8.60;5.23;;;-6.50;99.90;;;;;;5031776;28;20202;-50
2024/01/09 02:23:48;;;;;;;7.97;4.80;;;-6.50;99.90;;;;;;5032142;28;20183;-51
2024/01/09 02:26:20;;;;;;;7.13;4.70;;;-6.60;99.90;;;;;;5031926;28;20269;-51
2024/01/09 02:28:54;;;;;;;10.00;4.90;;;-6.60;99.90;;;;;;5031991;28;20253;-50
2024/01/09 02:31:19;;;;;;;7.37;4.67;;;-6.60;1.00;;;;;;5031786;28;20462;-50
2024/01/09 02:33:46;;;;;;;11.43;4.90;;;-6.70;1.00;;;;;;5031766;28;20418;-51
2024/01/09 02:36:12;;;;;;;7.73;4.60;;;-6.60;29.40;;;;;;5031772;28;20191;-51
2024/01/09 02:38:38;;;;;;;7.90;5.13;;;-6.70;90.90;;;;;;5031909;28;20417;-51
2024/01/09 02:41:07;;;;;;;9.63;5.83;;;-6.70;99.90;;;;;;5032097;28;20272;-51
2024/01/09 02:43:33;;;;;;;8.70;4.53;;;-6.80;99.90;;;;;;5031354;28;20418;-52
2024/01/09 02:45:58;;;;;;;9.93;4.93;;;-6.80;99.90;;;;;;5032027;28;20558;-51
2024/01/09 02:48:24;;;;;;;7.67;5.00;;;-6.80;99.90;;;;;;5031170;28;20257;-51
2024/01/09 02:50:49;;;;;;;7.80;4.67;;;-6.80;99.90;;;;;;5031739;28;20667;-51
2024/01/09 02:53:15;;;;;;;8.00;4.47;;;-6.80;99.90;;;;;;5031732;28;20542;-51
2024/01/09 02:55:41;;;;;;;6.40;4.97;;;-6.80;99.90;;;;;;5031459;28;20252;-50
2024/01/09 02:58:06;;;;;;;10.47;5.00;;;-6.80;99.90;;;;;;5031603;28;20190;-51
2024/01/09 03:00:32;;;;;;;10.30;5.30;;;-6.90;99.90;;;;;;5031457;28;20185;-51
2024/01/09 03:02:57;;;;;;;8.67;4.57;;;-6.90;99.90;;;;;;5031473;28;20179;-51
2024/01/09 03:05:23;;;;;;;16.63;5.90;;;-6.90;99.90;;;;;;5031454;28;20191;-50
2024/01/09 03:07:48;;;;;;;11.83;5.27;;;-6.90;99.90;;;;;;5031290;28;20710;-50
2024/01/09 03:10:14;;;;;;;7.70;4.70;;;-7.00;99.90;;;;;;5031462;28;20516;-51
2024/01/09 03:12:39;;;;;;;11.30;4.90;;;-7.00;1.00;;;;;;5031828;28;20211;-51
2024/01/09 03:15:06;;;;;;;6.63;4.60;;;-7.00;1.00;;;;;;5031199;28;20188;-51
2024/01/09 03:17:31;;;;;;;9.50;4.67;;;-7.00;1.00;;;;;;5031826;28;20189;-51
2024/01/09 03:19:57;;;;;;;9.97;4.93;;;-7.00;99.90;;;;;;5031427;28;20988;-51
2024/01/09 03:22:22;;;;;;;8.70;5.23;;;-7.00;99.90;;;;;;5031054;28;20204;-51
2024/01/09 03:24:48;;;;;;;11.00;5.27;;;-7.10;99.90;;;;;;5031930;28;20190;-51
2024/01/09 03:27:13;;;;;;;6.20;4.40;;;-7.10;99.90;;;;;;5031288;28;21052;-53
2024/01/09 03:29:39;;;;;;;7.50;4.60;;;-7.10;99.90;;;;;;5031772;28;20653;-51
2024/01/09 03:32:05;;;;;;;10.30;4.33;;;-7.10;96.70;;;;;;5031170;28;20199;-50
2024/01/09 03:34:31;;;;;;;9.20;4.87;;;-7.20;67.30;;;;;;5031525;28;20445;-50
2024/01/09 03:36:57;;;;;;;8.87;4.60;;;-7.20;90.30;;;;;;5031311;28;20414;-51
2024/01/09 03:39:22;;;;;;;10.23;4.70;;;-7.20;77.30;;;;;;5034483;28;20262;-51
2024/01/09 03:41:48;;;;;;;14.73;5.87;;;-7.20;62.10;;;;;;5034718;28;20674;-50
2024/01/09 03:44:14;;;;;;;9.87;5.27;;;-7.20;27.20;;;;;;5035160;28;20192;-52
2024/01/09 03:46:40;;;;;;;10.30;5.37;;;-7.20;99.90;;;;;;5034587;28;20186;-51
2024/01/09 03:49:05;;;;;;;10.20;4.63;;;-7.20;99.90;;;;;;5035161;28;20185;-51
2024/01/09 03:51:31;;;;;;;10.93;5.30;;;-7.30;1.00;;;;;;5034778;28;20660;-51
2024/01/09 03:53:56;;;;;;;8.47;5.20;;;-7.30;99.90;;;;;;5034450;28;20187;-51
2024/01/09 03:56:24;;;;;;;9.87;4.57;;;-7.30;1.00;;;;;;5034222;28;20179;-51
2024/01/09 03:58:52;;;;;;;17.70;5.73;;;-7.30;1.00;;;;;;5034914;28;20187;-51
2024/01/09 04:01:17;;;;;;;10.87;5.83;;;-7.30;1.00;;;;;;5034427;28;20445;-51
2024/01/09 04:03:43;;;;;;;13.50;5.70;;;-7.30;99.90;;;;;;5034874;28;20433;-51
2024/01/09 04:06:08;;;;;;;13.33;6.00;;;-7.40;99.90;;;;;;5034481;28;20176;-51
2024/01/09 04:08:34;;;;;;;11.00;5.40;;;-7.40;99.90;;;;;;5034211;28;20245;-51
2024/01/09 04:11:03;;;;;;;9.67;5.77;;;-7.40;99.90;;;;;;5033861;28;20210;-51
2024/01/09 04:13:28;;;;;;;9.97;5.33;;;-7.40;99.90;;;;;;5034702;28;20195;-51
2024/01/09 04:15:54;;;;;;;15.47;5.67;;;-7.40;1.00;;;;;;5034651;28;20422;-51
2024/01/09 04:18:19;;;;;;;10.10;5.87;;;-7.40;1.00;;;;;;5033832;28;20674;-51
2024/01/09 04:20:45;;;;;;;10.67;5.37;;;-7.40;1.00;;;;;;5033638;28;20646;-52
2024/01/09 04:23:11;;;;;;;12.03;5.97;;;-7.40;1.00;;;;;;5034947;28;20635;-51
2024/01/09 04:25:36;;;;;;;9.23;5.93;;;-7.50;1.00;;;;;;5034530;28;20635;-50
2024/01/09 04:28:02;;;;;;;8.80;5.90;;;-7.50;1.00;;;;;;5034080;28;20179;-51
2024/01/09 04:30:27;;;;;;;11.30;5.93;;;-7.50;54.30;;;;;;5033538;28;20584;-52
2024/01/09 04:32:53;;;;;;;12.00;6.23;;;-7.50;99.90;;;;;;5034037;28;20187;-51
2024/01/09 04:35:19;;;;;;;18.00;6.57;;;-7.40;1.00;;;;;;5034282;28;20171;-52
2024/01/09 04:37:44;;;;;;;20.77;6.40;;;-7.50;1.00;;;;;;5033973;28;20179;-54
2024/01/09 04:40:10;;;;;;;9.60;6.47;;;-7.50;1.00;;;;;;5033941;28;20194;-51
2024/01/09 04:42:36;;;;;;;12.80;6.77;;;-7.50;1.00;;;;;;5034046;28;20179;-52
2024/01/09 04:45:02;;;;;;;14.73;7.07;;;-7.50;1.00;;;;;;5033318;28;20642;-51
2024/01/09 04:47:27;;;;;;;15.07;6.70;;;-7.60;1.00;;;;;;5033961;28;20185;-51
2024/01/09 04:49:53;;;;;;;17.97;7.73;;;-7.60;31.70;;;;;;5032308;28;20909;-51
2024/01/09 04:52:19;;;;;;;10.53;6.93;;;-7.60;41.70;;;;;;5033715;28;20211;-51
2024/01/09 04:54:44;;;;;;;16.00;6.37;;;-7.60;99.90;;;;;;5033207;28;20205;-52
2024/01/09 04:57:10;;;;;;;11.67;6.50;;;-7.70;99.90;;;;;;5033606;28;20203;-51
2024/01/09 04:59:36;;;;;;;13.40;7.10;;;-7.70;99.90;;;;;;5033900;28;20680;-51
2024/01/09 05:02:02;;;;;;;15.30;7.20;;;-7.70;45.90;;;;;;5033729;28;20620;-51
2024/01/09 05:04:30;;;;;;;15.67;8.20;;;-7.70;99.90;;;;;;5033803;28;20191;-51
2024/01/09 05:06:56;;;;;;;15.00;6.70;;;-7.70;99.90;;;;;;5032882;28;20488;-51
2024/01/09 05:09:23;;;;;;;12.83;7.43;;;-7.70;1.00;;;;;;5033819;28;20418;-52
2024/01/09 05:11:48;;;;;;;15.93;8.27;;;-7.70;1.00;;;;;;5033220;28;20461;-51
2024/01/09 05:14:14;;;;;;;13.77;7.20;;;-7.70;1.00;;;;;;5033922;28;20422;-51
2024/01/09 05:16:39;;;;;;;14.40;7.30;;;-7.70;84.70;;;;;;5033609;28;20184;-51
2024/01/09 05:19:05;;;;;;;17.40;8.30;;;-7.70;99.90;;;;;;5033053;28;20197;-51
2024/01/09 05:21:31;;;;;;;17.23;8.93;;;-7.70;99.90;;;;;;5032701;28;20194;-53
2024/01/09 05:23:56;;;;;;;20.13;9.50;;;-7.70;1.00;;;;;;5033625;28;20518;-50
2024/01/09 05:26:22;;;;;;;24.00;8.57;;;-7.70;1.00;;;;;;5033141;28;20195;-50
2024/01/09 05:28:48;;;;;;;14.83;7.53;;;-7.60;1.00;;;;;;5032929;28;20261;-50
2024/01/09 05:31:13;;;;;;;16.20;8.10;;;-7.60;40.40;;;;;;5032673;28;20694;-52
2024/01/09 05:33:39;;;;;;;17.33;8.23;;;-7.70;92.40;;;;;;5033169;28;20180;-51
2024/01/09 05:36:06;;;;;;;16.67;9.20;;;-7.70;99.90;;;;;;5033065;28;20191;-51
2024/01/09 05:38:32;;;;;;;17.23;8.10;;;-7.60;99.90;;;;;;5032336;28;20548;-51
2024/01/09 05:40:57;;;;;;;14.03;8.43;;;-7.60;99.90;;;;;;5032400;28;20497;-53
2024/01/09 05:43:23;;;;;;;16.70;8.20;;;-7.60;99.90;;;;;;5032394;28;20549;-51
2024/01/09 05:45:48;;;;;;;16.07;9.00;;;-7.60;99.90;;;;;;5032588;28;20664;-51
2024/01/09 05:48:14;;;;;;;15.27;8.50;;;-7.60;99.90;;;;;;5032463;28;20584;-52
2024/01/09 05:50:39;;;;;;;22.93;9.17;;;-7.60;99.90;;;;;;5032351;28;20206;-53
2024/01/09 05:53:05;;;;;;;16.33;8.80;;;-7.70;99.90;;;;;;5030938;28;20183;-51
2024/01/09 05:55:30;;;;;;;16.40;9.20;;;-7.70;99.90;;;;;;5032873;28;20381;-51
2024/01/09 05:57:56;;;;;;;16.87;8.60;;;-7.80;99.90;;;;;;5032587;28;20620;-51
2024/01/09 06:00:21;;;;;;;18.20;8.20;;;-7.80;99.90;;;;;;5032368;28;20198;-51
2024/01/09 06:02:47;;;;;;;19.10;8.30;;;-7.80;99.90;;;;;;5031515;28;20237;-51
2024/01/09 06:05:13;;;;;;;15.30;9.27;;;-7.80;99.90;;;;;;5032693;28;20190;-51
2024/01/09 06:07:38;;;;;;;18.27;9.63;;;-7.80;99.90;;;;;;5032586;28;20681;-51
2024/01/09 06:10:04;;;;;;;17.30;9.47;;;-7.80;99.90;;;;;;5031757;28;20674;-51
2024/01/09 06:12:29;;;;;;;15.47;9.27;;;-7.80;99.90;;;;;;5032280;28;20180;-51
2024/01/09 06:14:55;;;;;;;18.17;8.43;;;-7.80;99.90;;;;;;5031973;28;20186;-50
2024/01/09 06:17:21;;;;;;;17.17;9.53;;;-7.80;99.90;;;;;;5031757;28;20182;-51
2024/01/09 06:19:47;;;;;;;18.23;9.90;;;-7.80;99.90;;;;;;5032465;28;20191;-51
2024/01/09 06:22:13;;;;;;;16.80;9.30;;;-7.80;99.90;;;;;;5032354;28;20975;-50
2024/01/09 06:24:38;;;;;;;16.43;9.60;;;-7.80;99.90;;;;;;5032033;28;20179;-50
2024/01/09 06:27:04;;;;;;;21.60;10.00;;;-7.80;99.90;;;;;;5031956;28;20183;-50
2024/01/09 06:29:29;;;;;;;15.70;9.30;;;-7.70;99.90;;;;;;5031661;28;20184;-50
2024/01/09 06:31:55;;;;;;;20.23;10.60;;;-7.70;99.90;;;;;;5032074;28;20264;-49
2024/01/09 06:34:21;;;;;;;21.63;11.30;;;-7.70;99.90;;;;;;5032132;28;20187;-50
2024/01/09 06:36:47;;;;;;;20.40;10.10;;;-7.80;99.90;;;;;;5031458;28;20619;-50
2024/01/09 06:39:13;;;;;;;17.87;9.67;;;-7.80;99.90;;;;;;5032301;28;20599;-51
2024/01/09 06:41:38;;;;;;;17.13;9.40;;;-7.80;99.90;;;;;;5031708;28;20426;-53
2024/01/09 06:44:04;;;;;;;17.13;9.40;;;-7.80;99.90;;;;;;5031514;28;20496;-51
2024/01/09 06:46:30;;;;;;;20.10;10.07;;;-7.80;99.90;;;;;;5031870;28;20278;-51
2024/01/09 06:48:56;;;;;;;20.20;10.40;;;-7.90;99.90;;;;;;5031853;28;20249;-52
2024/01/09 06:51:21;;;;;;;20.27;11.00;;;-7.90;99.90;;;;;;5031493;28;20628;-51
2024/01/09 06:53:47;;;;;;;19.93;10.50;;;-7.90;99.90;;;;;;5031589;28;20187;-51
2024/01/09 06:56:13;;;;;;;23.33;11.20;;;-7.90;99.90;;;;;;5032275;28;20804;-51
2024/01/09 06:58:39;;;;;;;18.90;11.20;;;-7.90;99.90;;;;;;5031878;28;20179;-51
2024/01/09 07:01:05;;;;;;;23.43;11.17;;;-7.90;99.90;;;;;;5031042;28;21092;-51
2024/01/09 07:03:31;;;;;;;21.70;10.70;;;-7.80;99.90;;;;;;5031642;28;20544;-51
2024/01/09 07:05:56;;;;;;;21.90;11.10;;;-7.90;99.90;;;;;;5032089;28;20862;-51
2024/01/09 07:08:22;;;;;;;19.90;10.93;;;-7.90;99.90;;;;;;5031719;28;20637;-51
2024/01/09 07:10:48;;;;;;;16.57;9.37;;;-7.90;99.90;;;;;;5031386;28;20207;-51
2024/01/09 07:13:13;;;;;;;17.57;10.47;;;-7.90;99.90;;;;;;5033151;28;20461;-51
2024/01/09 07:15:39;;;;;;;22.27;10.70;;;-7.90;99.90;;;;;;5035113;28;20186;-51
2024/01/09 07:18:05;;;;;;;21.00;10.30;;;-7.90;99.90;;;;;;5035644;28;20183;-51
2024/01/09 07:20:30;;;;;;;19.83;12.00;;;-7.90;99.90;;;;;;5035841;28;20242;-51
2024/01/09 07:22:56;;;;;;;22.03;10.90;;;-7.90;99.90;;;;;;5035653;28;20643;-50
2024/01/09 07:25:21;;;;;;;17.87;10.30;;;-7.90;99.90;;;;;;5034627;28;20290;-52
2024/01/09 07:27:47;;;;;;;26.90;11.03;;;-7.90;99.90;;;;;;5035422;28;20632;-52
2024/01/09 07:30:13;;;;;;;24.80;10.73;;;-7.90;99.90;;;;;;5035844;28;20186;-52
2024/01/09 07:32:38;;;;;;;22.17;11.00;;;-7.90;99.90;;;;;;5035572;28;20190;-52
2024/01/09 07:35:05;;;;;;;22.20;10.20;;;-7.90;1.00;;;;;;5034382;28;20520;-51
2024/01/09 07:37:31;;;;;;;22.47;11.20;;;-7.80;1.00;;;;;;5035345;28;20189;-51
2024/01/09 07:39:56;;;;;;;20.30;10.83;;;-7.80;1.00;;;;;;5034674;28;20420;-50
2024/01/09 07:42:22;;;;;;;21.97;11.27;;;-7.70;1.00;;;;;;5035284;28;20324;-51
2024/01/09 07:44:48;;;;;;;22.67;11.23;;;-7.70;1.00;;;;;;5035127;28;20225;-51
2024/01/09 07:47:13;;;;;;;19.67;11.60;;;-7.60;1.00;;;;;;5034435;28;20203;-51
2024/01/09 07:49:39;;;;;;;21.40;10.37;;;-7.60;1.00;;;;;;5034298;28;20196;-51
2024/01/09 07:52:05;;;;;;;23.80;11.90;;;-7.50;1.00;;;;;;5035209;28;20231;-50
2024/01/09 07:54:31;;;;;;;19.87;10.80;;;-7.40;1.00;;;;;;5034600;28;20186;-50
2024/01/09 07:56:56;;;;;;;21.73;11.10;;;-7.40;1.00;;;;;;5034423;28;20420;-50
2024/01/09 07:59:22;;;;;;;19.23;10.63;;;-7.40;1.00;;;;;;5034476;28;20665;-50
2024/01/09 08:01:54;;;;;;;24.80;11.43;;;-7.40;1.00;;;;;;5034776;28;20190;-51
2024/01/09 08:04:23;;;;;;;18.77;11.30;;;-7.40;1.00;;;;;;5034761;28;20183;-50
2024/01/09 08:06:52;;;;;;;26.20;11.33;;;-7.40;1.00;;;;;;5033829;28;20973;-51
2024/01/09 08:09:18;;;;;;;23.67;10.90;;;-7.30;1.00;;;;;;5034637;28;20424;-51
2024/01/09 08:11:44;;;;;;;28.83;12.80;;;-7.20;1.00;;;;;;5034371;28;20454;-51
2024/01/09 08:14:11;;;;;;;22.77;12.13;;;-7.10;1.00;;;;;;5034873;28;20429;-51
2024/01/09 08:16:36;;;;;;;21.20;11.57;;;-7.00;1.00;;;;;;5034289;28;20410;-51
2024/01/09 08:19:04;;;;;;;26.10;13.17;;;-6.90;1.00;;;;;;5034834;28;20803;-51
2024/01/09 08:21:30;;;;;;;27.90;12.40;;;-6.90;1.00;;;;;;5034170;28;20250;-51
2024/01/09 08:23:56;;;;;;;24.30;12.43;;;-6.80;1.00;;;;;;5033632;28;20410;-51
2024/01/09 08:26:22;;;;;;;26.13;12.03;;;-6.70;1.00;;;;;;5032885;28;20413;-51
2024/01/09 08:28:48;;;;;;;23.33;11.73;;;-6.70;1.00;;;;;;5034370;28;20187;-51
2024/01/09 08:31:13;;;;;;;23.33;10.83;;;-6.60;1.00;;;;;;5034503;28;20511;-50
2024/01/09 08:33:39;;;;;;;23.20;11.40;;;-6.60;1.00;;;;;;5034163;28;20280;-51
2024/01/09 08:36:05;;;;;;;25.80;12.10;;;-6.50;1.00;;;;;;5034098;28;20194;-51
2024/01/09 08:38:30;;;;;;;24.57;12.13;;;-6.50;1.00;;;;;;5034020;28;20187;-51
2024/01/09 08:40:56;;;;;;;26.30;13.23;;;-6.40;1.00;;;;;;5034333;28;20182;-51
2024/01/09 08:43:22;;;;;;;20.90;11.60;;;-6.30;1.00;;;;;;5033249;28;20258;-51
2024/01/09 08:45:49;;;;;;;24.20;11.30;;;-6.20;1.00;;;;;;5034149;28;20215;-51
2024/01/09 08:48:15;;;;;;;27.13;10.87;;;-6.10;1.00;;;;;;5033800;28;20418;-52
2024/01/09 08:50:41;;;;;;;20.70;11.23;;;-6.10;1.00;;;;;;5034025;28;20552;-52
2024/01/09 08:53:07;;;;;;;25.20;11.20;;;-6.10;99.90;;;;;;5034232;28;20516;-51
2024/01/09 08:55:33;;;;;;;25.87;12.60;;;-6.00;99.90;;;;;;5033513;28;20199;-50
2024/01/09 08:57:59;;;;;;;23.83;11.13;;;-6.00;99.90;;;;;;5033645;28;20421;-50
2024/01/09 09:00:24;;;;;;;22.57;12.63;;;-5.90;99.90;;;;;;5033887;28;20414;-52
2024/01/09 09:02:51;;;;;;;28.47;12.40;;;-5.80;99.90;;;;;;5033530;28;20179;-52
2024/01/09 09:05:16;;;;;;;24.50;12.13;;;-5.70;99.90;;;;;;5033642;28;20187;-52
2024/01/09 09:07:42;;;;;;;24.67;12.73;;;-5.60;99.90;;;;;;5032942;28;20476;-52
2024/01/09 09:10:08;;;;;;;26.37;12.60;;;-5.50;99.90;;;;;;5033634;28;20267;-51
2024/01/09 09:12:33;;;;;;;23.90;12.40;;;-5.40;99.90;;;;;;5032827;28;20707;-52
2024/01/09 09:14:59;;;;;;;27.20;13.07;;;-5.30;99.90;;;;;;5033028;28;20184;-51
2024/01/09 09:17:25;;;;;;;28.17;13.30;;;-5.20;99.90;;;;;;5033135;28;20183;-51
2024/01/09 09:19:50;;;;;;;18.30;11.37;;;-5.10;99.90;;;;;;5033580;28;20402;-50
2024/01/09 09:22:16;;;;;;;24.33;11.83;;;-4.90;99.90;;;;;;5033211;28;20179;-51
2024/01/09 09:24:42;;;;;;;24.47;11.17;;;-4.80;99.90;;;;;;5032533;28;20180;-50
2024/01/09 09:27:08;;;;;;;22.30;11.90;;;-4.80;1.00;;;;;;5032958;28;20187;-50
2024/01/09 09:29:33;;;;;;;19.87;11.50;;;-4.70;1.00;;;;;;5032914;28;20421;-51
2024/01/09 09:31:59;;;;;;;21.00;11.93;;;-4.60;1.00;;;;;;5032794;28;20219;-50
2024/01/09 09:34:25;;;;;;;20.93;11.30;;;-4.50;1.00;;;;;;5033165;28;20225;-50
2024/01/09 09:36:50;;;;;;;25.67;12.47;;;-4.50;1.00;;;;;;5032387;28;20538;-51
2024/01/09 09:39:17;;;;;;;20.83;11.00;;;-4.40;99.90;;;;;;5032572;28;20182;-51
2024/01/09 09:41:44;;;;;;;19.37;10.70;;;-4.40;99.90;;;;;;5032878;28;20191;-51
2024/01/09 09:44:13;;;;;;;22.47;11.40;;;-4.30;99.90;;;;;;5033227;28;20406;-51
2024/01/09 09:46:41;;;;;;;22.97;11.40;;;-4.20;99.90;;;;;;5032491;28;20472;-51
2024/01/09 09:49:08;;;;;;;22.47;12.07;;;-4.10;99.90;;;;;;5032916;28;20422;-50
2024/01/09 09:51:35;;;;;;;26.87;11.87;;;-4.00;99.90;;;;;;5032813;28;20556;-51
2024/01/09 09:54:02;;;;;;;17.60;10.43;;;-4.00;1.00;;;;;;5032231;28;20457;-50
2024/01/09 09:56:28;;;;;;;18.17;10.60;;;-3.90;1.00;;;;;;5032570;28;20418;-50
2024/01/09 09:58:54;;;;;;;20.10;10.83;;;-3.80;99.90;;;;;;5032729;28;20454;-50
2024/01/09 10:01:22;;;;;;;18.13;10.37;;;-3.70;1.00;;;;;;5032639;28;21044;-51
2024/01/09 10:04:01;;;;;;;22.53;10.70;;;-3.60;99.90;;;;;;5032576;28;20207;-51
2024/01/09 10:06:28;;;;;;;16.67;10.10;;;-3.40;1.00;;;;;;5032322;28;20421;-51
2024/01/09 10:08:56;;;;;;;22.77;10.97;;;-3.20;1.00;;;;;;5031953;28;20891;-51
2024/01/09 10:11:22;;;;;;;18.33;9.70;;;-2.90;1.00;;;;;;5032480;28;20465;-51
2024/01/09 10:13:48;;;;;;;19.17;10.30;;;-2.40;99.90;;;;;;5032805;28;20501;-52
2024/01/09 10:16:14;;;;;;;17.63;10.57;;;-1.90;99.90;;;;;;5032611;28;20410;-51
2024/01/09 10:18:39;;;;;;;16.93;10.00;;;-1.40;1.00;;;;;;5031743;28;20406;-50
2024/01/09 10:21:07;;;;;;;17.30;10.33;;;-1.20;1.00;;;;;;5032008;28;20187;-51
2024/01/09 10:23:36;;;;;;;18.40;8.77;;;-1.00;1.00;;;;;;5032305;28;20187;-51
2024/01/09 10:26:04;;;;;;;16.57;9.07;;;-0.70;99.90;;;;;;5032259;28;20414;-51
2024/01/09 10:28:29;;;;;;;17.17;9.73;;;-0.50;99.90;;;;;;5031846;28;20457;-50
2024/01/09 10:30:55;;;;;;;12.73;8.13;;;-0.40;11.10;;;;;;5031692;28;20498;-51
2024/01/09 10:33:20;;;;;;;13.80;8.27;;;-0.50;52.70;;;;;;5031902;28;20548;-51
2024/01/09 10:35:46;;;;;;;14.43;8.60;;;-0.50;1.00;;;;;;5032249;28;20703;-51
2024/01/09 10:38:12;;;;;;;13.70;9.03;;;-0.40;1.00;;;;;;5032385;28;20217;-51
2024/01/09 10:40:37;;;;;;;15.17;8.37;;;-0.30;99.90;;;;;;5032104;28;20211;-50
2024/01/09 10:43:03;;;;;;;14.50;8.97;;;0.10;99.90;;;;;;5031852;28;20503;-51
2024/01/09 10:45:32;;;;;;;15.40;9.10;;;0.50;99.90;;;;;;5031576;28;20190;-50
2024/01/09 10:47:58;;;;;;;13.73;7.70;;;1.20;99.90;;;;;;5031297;28;20183;-50
2024/01/09 10:50:25;;;;;;;9.23;6.90;;;2.40;64.80;;;;;;5031687;28;20414;-50
2024/01/09 10:52:51;;;;;;;9.80;6.30;;;3.80;1.00;;;;;;5032060;28;20414;-50
2024/01/09 10:55:18;;;;;;;10.27;6.53;;;5.10;1.00;;;;;;5031818;28;20468;-50
2024/01/09 10:57:47;;;;;;;10.97;6.17;;;5.80;1.00;;;;;;5031690;28;20714;-50
2024/01/09 11:00:13;;;;;;;10.87;6.20;;;6.90;1.00;;;;;;5032292;28;20416;-50
2024/01/09 11:02:40;;;;;;;7.83;5.67;;;8.40;1.00;;;;;;5032041;28;20426;-50
2024/01/09 11:05:07;;;;;;;7.83;5.73;;;9.90;1.00;;;;;;5031297;28;20890;-51
2024/01/09 11:07:33;;;;;;;8.70;5.30;;;11.40;1.00;;;;;;5031096;28;20509;-50
2024/01/09 11:10:00;;;;;;;8.57;5.70;;;12.10;1.00;;;;;;5031797;28;20418;-49
2024/01/09 11:12:34;;;;;;;6.80;5.40;;;12.50;1.00;;;;;;5031508;28;20449;-49
2024/01/09 11:15:05;;;;;;;5.97;5.10;;;13.20;1.00;;;;;;5031876;28;20793;-48
2024/01/09 11:17:33;;;;;;;5.90;5.30;;;13.30;1.00;;;;;;5031504;28;20476;-49
2024/01/09 11:19:59;;;;;;;9.47;5.20;;;13.50;1.00;;;;;;5030868;28;20442;-49
2024/01/09 11:22:24;;;;;;;7.20;5.20;;;13.40;1.00;;;;;;5030916;28;20460;-50
2024/01/09 11:24:56;;;;;;;7.30;5.40;;;12.40;1.00;;;;;;5031543;28;20180;-50
2024/01/09 11:27:22;;;;;;;8.50;5.70;;;11.20;1.00;;;;;;5031390;28;20259;-50
2024/01/09 11:29:54;;;;;;;10.03;5.17;;;10.30;1.00;;;;;;5030080;28;20520;-50
2024/01/09 11:32:26;;;;;;;7.37;5.47;;;9.60;1.00;;;;;;5030784;28;20215;-50
2024/01/09 11:35:08;;;;;;;9.20;6.80;;;8.90;1.00;;;;;;5031406;28;20425;-50
2024/01/09 11:37:38;;;;;;;12.23;7.13;;;8.40;1.00;;;;;;5031685;28;20438;-49
2024/01/09 11:40:05;;;;;;;11.43;5.67;;;8.10;1.00;;;;;;5031192;28;20413;-49
2024/01/09 11:42:31;;;;;;;6.47;4.93;;;7.90;1.00;;;;;;5030437;28;20846;-49
2024/01/09 11:44:57;;;;;;;8.17;5.50;;;7.50;1.00;;;;;;5031123;28;20426;-50
2024/01/09 11:47:23;;;;;;;8.10;5.37;;;7.30;1.00;;;;;;5031271;28;20234;-50
2024/01/09 11:49:49;;;;;;;6.90;5.70;;;7.10;1.00;;;;;;5030660;28;20410;-50
2024/01/09 11:52:14;;;;;;;8.30;5.70;;;6.60;1.00;;;;;;5031829;28;20239;-49
2024/01/09 11:54:41;;;;;;;9.30;5.70;;;6.20;1.00;;;;;;5030720;28;20253;-49
2024/01/09 11:57:09;;;;;;;10.73;6.20;;;5.90;1.00;;;;;;5031327;28;20195;-50
2024/01/09 11:59:34;;;;;;;9.40;6.03;;;5.60;1.00;;;;;;5032744;28;20824;-50
2024/01/09 12:02:00;;;;;;;9.87;6.53;;;5.40;1.00;;;;;;5034631;28;20419;-50
2024/01/09 12:04:26;;;;;;;11.40;6.30;;;5.50;1.00;;;;;;5034319;28;20270;-49
2024/01/09 12:06:51;;;;;;;7.17;5.37;;;6.20;1.00;;;;;;5034581;28;20711;-50
2024/01/09 12:09:17;;;;;;;9.27;6.30;;;7.20;1.00;;;;;;5034738;28;20254;-50
2024/01/09 12:11:43;;;;;;;8.90;6.13;;;7.90;1.00;;;;;;5034907;28;20690;-49
2024/01/09 12:14:08;;;;;;;9.00;6.00;;;8.60;1.00;;;;;;5033351;28;21029;-50
2024/01/09 12:16:34;;;;;;;10.33;5.87;;;9.10;1.00;;;;;;5033810;28;20191;-50
2024/01/09 12:19:00;;;;;;;8.93;6.20;;;9.50;1.00;;;;;;5034501;28;20180;-49
2024/01/09 12:21:28;;;;;;;8.30;6.17;;;9.30;1.00;;;;;;5034753;28;20184;-50
2024/01/09 12:23:57;;;;;;;9.63;6.70;;;9.10;1.00;;;;;;5034053;28;20414;-50
2024/01/09 12:26:24;;;;;;;8.93;5.67;;;10.00;1.00;;;;;;5034055;28;20468;-50
2024/01/09 12:28:50;;;;;;;8.43;5.27;;;11.40;1.00;;;;;;5033842;28;20410;-50
2024/01/09 12:31:17;;;;;;;6.23;5.50;;;12.10;1.00;;;;;;5034191;28;20465;-50
2024/01/09 12:33:44;;;;;;;5.40;4.80;;;12.40;1.00;;;;;;5034491;28;20422;-50
2024/01/09 12:36:10;;;;;;;6.20;5.00;;;12.70;1.00;;;;;;5033449;28;20419;-49